Time;durP1;ratioP1;P1;durP2;ratioP2;P2;SDS_P1;SDS_P2;PMS_P1;PMS_P2;Temp;Humidity;BMP_temperature;BMP_pressure;BME280_temperature;BME280_humidity;BME280_pressure;Samples;Min_cycle;Max_cycle;Signal;HPM_P1;HPM_P2
2022/03/19 00:01:14;;;;;;;60.00;47.07;;;;;;;5.09;nan;100269.84;5053647;28;20205;-70
2022/03/19 00:03:41;;;;;;;59.43;44.93;;;;;;;5.14;nan;100273.75;5053525;28;20205;-70
2022/03/19 00:06:08;;;;;;;59.37;45.67;;;;;;;5.24;nan;100274.63;5053349;28;20213;-70
2022/03/19 00:08:34;;;;;;;59.83;46.13;;;;;;;5.25;nan;100276.28;5053563;28;20225;-70
2022/03/19 00:11:01;;;;;;;58.90;45.80;;;;;;;5.18;nan;100269.03;5053546;28;20215;-69
2022/03/19 00:13:28;;;;;;;57.30;44.13;;;;;;;5.20;nan;100267.94;5053400;28;20201;-69
2022/03/19 00:15:54;;;;;;;59.30;43.87;;;;;;;5.31;nan;100272.31;5053432;28;20230;-70
2022/03/19 00:18:20;;;;;;;60.97;46.60;;;;;;;5.27;nan;100265.63;5053425;28;20205;-70
2022/03/19 00:20:47;;;;;;;56.33;44.87;;;;;;;5.21;nan;100266.97;5053142;28;20208;-70
2022/03/19 00:23:15;;;;;;;59.27;45.13;;;;;;;5.15;nan;100270.16;5053135;28;20580;-70
2022/03/19 00:25:41;;;;;;;55.67;44.00;;;;;;;5.06;nan;100265.66;5053370;28;20251;-69
2022/03/19 00:28:08;;;;;;;59.40;45.33;;;;;;;5.14;nan;100262.34;5053381;28;20221;-70
2022/03/19 00:30:34;;;;;;;58.23;45.03;;;;;;;5.14;nan;100265.00;5053313;28;20209;-70
2022/03/19 00:33:01;;;;;;;58.90;45.07;;;;;;;5.14;nan;100267.63;5053393;28;20205;-70
2022/03/19 00:35:27;;;;;;;57.53;45.23;;;;;;;5.10;nan;100260.94;5052900;28;20237;-70
2022/03/19 00:37:54;;;;;;;56.83;43.93;;;;;;;5.14;nan;100263.22;5053039;28;20213;-70
2022/03/19 00:40:23;;;;;;;58.87;44.70;;;;;;;5.08;nan;100263.75;5053405;28;20210;-70
2022/03/19 00:42:49;;;;;;;58.40;45.47;;;;;;;5.08;nan;100258.47;5053328;28;20209;-70
2022/03/19 00:45:16;;;;;;;59.77;45.63;;;;;;;5.14;nan;100251.81;5055050;28;20221;-70
2022/03/19 00:47:43;;;;;;;57.67;44.73;;;;;;;5.11;nan;100249.47;5057050;28;20679;-70
2022/03/19 00:50:10;;;;;;;57.50;44.83;;;;;;;5.07;nan;100251.50;5057236;28;20227;-70
2022/03/19 00:52:36;;;;;;;56.07;44.40;;;;;;;5.04;nan;100251.78;5057296;28;20201;-70
2022/03/19 00:55:03;;;;;;;58.57;44.27;;;;;;;5.04;nan;100243.03;5057192;28;20231;-70
2022/03/19 00:57:38;;;;;;;55.57;43.87;;;;;;;5.03;nan;100244.00;5057164;28;20571;-70
2022/03/19 01:00:05;;;;;;;55.43;44.43;;;;;;;4.99;nan;100246.06;5056863;28;20530;-70
2022/03/19 01:02:31;;;;;;;53.83;43.73;;;;;;;4.98;nan;100243.56;5057122;28;20205;-70
2022/03/19 01:04:58;;;;;;;53.73;43.40;;;;;;;4.96;nan;100240.19;5056797;28;20316;-70
2022/03/19 01:07:24;;;;;;;55.57;43.63;;;;;;;5.04;nan;100233.31;5056648;28;20371;-70
2022/03/19 01:09:50;;;;;;;56.97;43.57;;;;;;;5.11;nan;100233.66;5057368;28;20221;-70
2022/03/19 01:12:17;;;;;;;54.53;43.67;;;;;;;5.13;nan;100234.34;5056854;28;20209;-70
2022/03/19 01:14:43;;;;;;;51.37;42.47;;;;;;;5.09;nan;100240.84;5056757;28;20229;-70
2022/03/19 01:17:09;;;;;;;56.90;43.30;;;;;;;5.12;nan;100238.78;5057578;28;20212;-69
2022/03/19 01:19:54;;;;;;;52.33;42.13;;;;;;;5.08;nan;100241.81;5056456;28;20201;-70
2022/03/19 01:22:23;;;;;;;54.03;43.43;;;;;;;5.08;nan;100236.53;5056622;28;20289;-70
2022/03/19 01:24:50;;;;;;;49.10;40.47;;;;;;;5.13;nan;100234.34;5056356;28;20707;-70
2022/03/19 01:27:16;;;;;;;53.03;42.47;;;;;;;5.07;nan;100232.22;5056664;28;20206;-70
2022/03/19 01:29:43;;;;;;;53.63;42.57;;;;;;;5.00;nan;100238.97;5056531;28;20239;-70
2022/03/19 01:32:10;;;;;;;54.30;43.17;;;;;;;4.90;nan;100236.31;5056569;28;20201;-70
2022/03/19 01:34:37;;;;;;;49.90;41.37;;;;;;;4.87;nan;100238.34;5056064;28;20243;-69
2022/03/19 01:37:04;;;;;;;56.67;43.83;;;;;;;4.81;nan;100233.59;5056770;28;20236;-70
2022/03/19 01:39:30;;;;;;;52.00;41.20;;;;;;;4.78;nan;100236.50;5056444;28;20228;-70
2022/03/19 01:41:57;;;;;;;54.50;42.83;;;;;;;4.80;nan;100229.31;5056312;28;20212;-69
2022/03/19 01:44:23;;;;;;;53.63;41.23;;;;;;;4.84;nan;100230.72;5056225;28;20593;-70
2022/03/19 01:47:06;;;;;;;56.60;42.83;;;;;;;4.89;nan;100237.25;5056213;28;20215;-70
2022/03/19 01:49:33;;;;;;;53.17;40.53;;;;;;;5.02;nan;100231.78;5056108;28;20217;-70
2022/03/19 01:51:59;;;;;;;49.67;38.73;;;;;;;5.18;nan;100234.78;5056187;28;20208;-69
2022/03/19 01:54:41;;;;;;;49.83;39.87;;;;;;;5.11;nan;100223.09;5055814;28;20248;-70
2022/03/19 01:57:09;;;;;;;49.93;39.47;;;;;;;5.11;nan;100225.72;5056024;28;20212;-70
2022/03/19 01:59:37;;;;;;;50.77;40.50;;;;;;;5.01;nan;100217.75;5055854;28;20197;-70
2022/03/19 02:02:10;;;;;;;53.87;41.03;;;;;;;4.96;nan;100216.47;5055839;28;20208;-70
2022/03/19 02:04:38;;;;;;;51.57;40.77;;;;;;;4.99;nan;100221.50;5055837;28;20263;-70
2022/03/19 02:07:07;;;;;;;47.20;39.90;;;;;;;4.98;nan;100219.84;5055636;28;20209;-70
2022/03/19 02:09:34;;;;;;;48.93;38.60;;;;;;;5.05;nan;100221.81;5055270;28;20260;-70
2022/03/19 02:12:02;;;;;;;46.73;39.33;;;;;;;4.98;nan;100214.56;5055766;28;20216;-70
2022/03/19 02:14:29;;;;;;;53.10;40.20;;;;;;;5.07;nan;100213.78;5055988;28;20229;-70
2022/03/19 02:16:55;;;;;;;47.60;39.57;;;;;;;4.98;nan;100217.19;5055399;28;20212;-70
2022/03/19 02:19:22;;;;;;;51.00;40.17;;;;;;;5.05;nan;100223.59;5055729;28;20220;-69
2022/03/19 02:21:51;;;;;;;49.40;39.17;;;;;;;5.09;nan;100223.22;5056020;28;20221;-70
2022/03/19 02:27:03;;;;;;;44.87;35.60;;;;;;;5.25;nan;100222.75;5055650;28;20211;-69
2022/03/19 02:29:29;;;;;;;45.97;36.47;;;;;;;5.34;nan;100219.31;5055088;28;20231;-70
2022/03/19 02:31:59;;;;;;;45.57;35.07;;;;;;;5.38;nan;100220.72;5055379;28;20205;-70
2022/03/19 02:34:26;;;;;;;49.43;37.47;;;;;;;5.24;nan;100213.97;5055322;28;20320;-70
2022/03/19 02:36:52;;;;;;;47.53;37.23;;;;;;;5.15;nan;100211.31;5054986;28;20205;-70
2022/03/19 02:39:24;;;;;;;46.40;36.57;;;;;;;5.19;nan;100204.78;5055591;28;20197;-69
2022/03/19 02:41:52;;;;;;;46.33;36.07;;;;;;;5.15;nan;100201.59;5055294;28;20201;-70
2022/03/19 02:44:20;;;;;;;44.40;35.93;;;;;;;5.08;nan;100203.09;5054794;28;20236;-70
2022/03/19 02:46:48;;;;;;;45.60;36.83;;;;;;;4.97;nan;100202.34;5054878;28;20690;-69
2022/03/19 02:49:16;;;;;;;48.93;36.57;;;;;;;4.96;nan;100201.50;5055021;28;20229;-70
2022/03/19 02:51:45;;;;;;;48.63;37.03;;;;;;;4.84;nan;100192.00;5055082;28;20209;-70
2022/03/19 02:54:14;;;;;;;45.37;36.30;;;;;;;4.80;nan;100198.50;5054604;28;20704;-70
2022/03/19 02:56:42;;;;;;;47.63;36.77;;;;;;;4.76;nan;100205.03;5054637;28;20686;-70
2022/03/19 02:59:13;;;;;;;45.87;36.67;;;;;;;4.55;nan;100201.56;5054934;28;20208;-70
2022/03/19 03:01:40;;;;;;;44.93;35.60;;;;;;;4.73;nan;100205.28;5054971;28;20554;-70
2022/03/19 03:04:07;;;;;;;43.87;36.37;;;;;;;4.79;nan;100202.09;5054758;28;20232;-70
2022/03/19 03:06:39;;;;;;;49.43;36.47;;;;;;;4.85;nan;100203.41;5054437;28;20725;-70
2022/03/19 03:09:06;;;;;;;45.80;37.17;;;;;;;4.68;nan;100198.72;5054181;28;20235;-70
2022/03/19 03:11:33;;;;;;;43.30;35.23;;;;;;;4.69;nan;100192.47;5054312;28;20571;-70
2022/03/19 03:14:00;;;;;;;44.73;35.57;;;;;;;4.58;nan;100200.47;5054295;28;20830;-70
2022/03/19 03:16:27;;;;;;;44.53;36.90;;;;;;;4.59;nan;100192.44;5054291;28;20259;-70
2022/03/19 03:18:56;;;;;;;44.37;35.07;;;;;;;4.55;nan;100190.16;5054555;28;20209;-70
2022/03/19 03:21:23;;;;;;;46.30;36.63;;;;;;;4.47;nan;100203.19;5054208;28;20212;-69
2022/03/19 03:23:50;;;;;;;44.37;35.87;;;;;;;4.55;nan;100198.94;5054051;28;20229;-69
2022/03/19 03:26:16;;;;;;;40.10;34.50;;;;;;;4.58;nan;100200.47;5054427;28;20209;-70
2022/03/19 03:28:43;;;;;;;43.27;34.93;;;;;;;4.60;nan;100195.88;5054288;28;20207;-70
2022/03/19 03:31:09;;;;;;;46.83;35.60;;;;;;;4.63;nan;100193.00;5054274;28;20212;-70
2022/03/19 03:33:36;;;;;;;44.17;33.73;;;;;;;4.57;nan;100193.53;5054034;28;20254;-70
2022/03/19 03:36:02;;;;;;;43.93;35.07;;;;;;;4.49;nan;100194.19;5053905;28;20637;-70
2022/03/19 03:38:29;;;;;;;41.60;34.20;;;;;;;4.62;nan;100191.34;5053812;28;20613;-69
2022/03/19 03:40:55;;;;;;;45.70;35.57;;;;;;;4.56;nan;100182.16;5053806;28;20564;-69
2022/03/19 03:43:22;;;;;;;43.87;34.20;;;;;;;4.63;nan;100188.59;5053702;28;20205;-70
2022/03/19 03:45:49;;;;;;;42.93;34.53;;;;;;;4.61;nan;100182.59;5053947;28;20545;-70
2022/03/19 03:48:15;;;;;;;43.40;34.37;;;;;;;4.66;nan;100190.13;5053922;28;20209;-69
2022/03/19 03:50:42;;;;;;;41.90;33.13;;;;;;;4.63;nan;100179.84;5053573;28;20221;-70
2022/03/19 03:53:09;;;;;;;41.67;34.77;;;;;;;4.60;nan;100182.72;5053915;28;20228;-70
2022/03/19 03:55:37;;;;;;;43.50;34.10;;;;;;;4.64;nan;100181.50;5053584;28;20225;-70
2022/03/19 03:58:05;;;;;;;41.10;33.97;;;;;;;4.51;nan;100179.06;5053847;28;20201;-70
2022/03/19 04:00:32;;;;;;;44.37;34.40;;;;;;;4.50;nan;100176.56;5053790;28;20212;-70
2022/03/19 04:02:59;;;;;;;44.77;34.83;;;;;;;4.54;nan;100180.59;5053760;28;20206;-70
2022/03/19 04:05:26;;;;;;;42.77;33.03;;;;;;;4.56;nan;100176.06;5053682;28;20229;-70
2022/03/19 04:07:54;;;;;;;43.37;33.73;;;;;;;4.60;nan;100172.19;5053286;28;20564;-70
2022/03/19 04:10:21;;;;;;;42.27;33.30;;;;;;;4.60;nan;100174.81;5053532;28;20316;-70
2022/03/19 04:12:47;;;;;;;44.63;34.33;;;;;;;4.53;nan;100171.03;5053552;28;20201;-70
2022/03/19 04:15:13;;;;;;;46.80;35.30;;;;;;;4.48;nan;100173.22;5053123;28;20708;-69
2022/03/19 04:17:40;;;;;;;41.97;33.87;;;;;;;4.46;nan;100170.72;5053486;28;20570;-70
2022/03/19 04:20:07;;;;;;;42.00;33.23;;;;;;;4.42;nan;100171.09;5053141;28;20227;-69
2022/03/19 04:22:46;;;;;;;41.10;32.60;;;;;;;4.48;nan;100157.44;5053423;28;20205;-69
2022/03/19 04:25:17;;;;;;;42.57;33.67;;;;;;;4.37;nan;100166.22;5053456;28;20229;-69
2022/03/19 04:27:52;;;;;;;47.40;35.30;;;;;;;4.40;nan;100159.88;5053366;28;20296;-70
2022/03/19 04:30:20;;;;;;;44.07;33.57;;;;;;;4.35;nan;100164.69;5053346;28;20212;-70
2022/03/19 04:32:55;;;;;;;43.53;34.83;;;;;;;4.31;nan;100165.91;5053340;28;20214;-70
2022/03/19 04:38:10;;;;;;;45.67;33.77;;;;;;;4.20;nan;100166.78;5053379;28;20176;-70
2022/03/19 04:40:38;;;;;;;42.87;34.67;;;;;;;4.12;nan;100158.69;5052854;28;20563;-70
2022/03/19 04:43:04;;;;;;;44.83;34.47;;;;;;;4.14;nan;100159.41;5053082;28;20205;-69
2022/03/19 04:45:31;;;;;;;42.73;33.23;;;;;;;4.22;nan;100167.53;5053142;28;20585;-70
2022/03/19 04:47:57;;;;;;;44.97;35.57;;;;;;;4.16;nan;100167.19;5052804;28;20731;-69
2022/03/19 04:50:24;;;;;;;44.00;33.13;;;;;;;4.09;nan;100161.59;5053070;28;20317;-70
2022/03/19 04:52:51;;;;;;;43.00;34.07;;;;;;;4.11;nan;100164.13;5053127;28;20205;-70
2022/03/19 04:55:17;;;;;;;41.53;33.57;;;;;;;4.18;nan;100168.72;5053177;28;20225;-70
2022/03/19 04:57:45;;;;;;;41.23;32.27;;;;;;;4.26;nan;100163.69;5053155;28;20201;-70
2022/03/19 05:00:13;;;;;;;43.97;34.00;;;;;;;4.12;nan;100156.06;5053134;28;20296;-69
2022/03/19 05:02:39;;;;;;;46.77;34.60;;;;;;;4.02;nan;100159.59;5052831;28;20209;-69
2022/03/19 05:05:06;;;;;;;43.23;32.70;;;;;;;4.04;nan;100148.00;5053009;28;20232;-70
2022/03/19 05:07:35;;;;;;;41.03;32.47;;;;;;;4.06;nan;100147.84;5053042;28;20232;-70
2022/03/19 05:12:48;;;;;;;41.07;32.93;;;;;;;3.93;nan;100141.94;5052801;28;20176;-69
2022/03/19 05:15:16;;;;;;;43.90;33.53;;;;;;;3.87;nan;100145.06;5052706;28;20229;-69
2022/03/19 05:17:43;;;;;;;44.67;33.80;;;;;;;3.80;nan;100143.91;5052514;28;20205;-70
2022/03/19 05:20:11;;;;;;;42.57;32.80;;;;;;;3.93;nan;100139.31;5052648;28;20201;-70
2022/03/19 05:22:38;;;;;;;42.97;32.33;;;;;;;3.97;nan;100135.47;5052955;28;20210;-69
2022/03/19 05:25:05;;;;;;;41.27;31.63;;;;;;;3.96;nan;100144.31;5053414;28;20233;-69
2022/03/19 05:27:32;;;;;;;41.80;30.97;;;;;;;3.92;nan;100142.88;5052963;28;20205;-69
2022/03/19 05:29:59;;;;;;;42.03;32.70;;;;;;;3.97;nan;100146.00;5052547;28;20704;-69
2022/03/19 05:32:25;;;;;;;43.73;33.60;;;;;;;3.95;nan;100137.38;5055963;28;20635;-70
2022/03/19 05:34:53;;;;;;;42.03;33.57;;;;;;;3.84;nan;100145.34;5056121;28;20243;-70
2022/03/19 05:37:19;;;;;;;43.53;33.57;;;;;;;3.87;nan;100131.91;5056374;28;20253;-69
2022/03/19 05:39:45;;;;;;;44.20;32.87;;;;;;;3.78;nan;100144.03;5056382;28;20209;-70
2022/03/19 05:42:12;;;;;;;44.40;31.70;;;;;;;3.84;nan;100140.06;5056341;28;20202;-70
2022/03/19 05:44:39;;;;;;;41.90;32.40;;;;;;;3.90;nan;100132.50;5056156;28;20229;-69
2022/03/19 05:47:06;;;;;;;41.97;32.13;;;;;;;4.00;nan;100138.69;5056201;28;20216;-70
2022/03/19 05:49:32;;;;;;;38.87;31.70;;;;;;;3.94;nan;100135.72;5056088;28;20224;-69
2022/03/19 05:51:59;;;;;;;42.33;32.27;;;;;;;3.90;nan;100129.03;5055979;28;20224;-69
2022/03/19 05:54:26;;;;;;;42.40;32.43;;;;;;;4.00;nan;100130.78;5055997;28;20310;-70
2022/03/19 05:56:54;;;;;;;46.20;32.80;;;;;;;4.00;nan;100138.69;5056906;28;20209;-69
2022/03/19 05:59:21;;;;;;;40.17;31.73;;;;;;;4.07;nan;100136.38;5055748;28;20205;-69
2022/03/19 06:01:48;;;;;;;41.90;32.20;;;;;;;4.00;nan;100136.03;5055912;28;20211;-69
2022/03/19 06:04:15;;;;;;;41.60;32.43;;;;;;;4.10;nan;100141.34;5055893;28;20228;-69
2022/03/19 06:06:42;;;;;;;42.10;32.17;;;;;;;4.16;nan;100141.69;5056499;28;20213;-70
2022/03/19 06:09:08;;;;;;;39.63;31.00;;;;;;;4.32;nan;100138.59;5056562;28;20212;-69
2022/03/19 06:11:35;;;;;;;45.33;33.10;;;;;;;4.32;nan;100139.44;5055713;28;20229;-70
2022/03/19 06:14:02;;;;;;;44.00;32.57;;;;;;;4.28;nan;100151.19;5056294;28;20236;-70
2022/03/19 06:16:28;;;;;;;42.37;31.47;;;;;;;4.32;nan;100146.50;5055651;28;20202;-69
2022/03/19 06:18:55;;;;;;;40.90;33.20;;;;;;;4.35;nan;100141.84;5055696;28;20209;-70
2022/03/19 06:21:23;;;;;;;45.30;33.17;;;;;;;4.41;nan;100140.47;5055492;28;20208;-69
2022/03/19 06:23:53;;;;;;;43.77;34.47;;;;;;;4.28;nan;100145.09;5056144;28;20233;-70
2022/03/19 06:26:23;;;;;;;48.53;35.80;;;;;;;4.25;nan;100140.91;5055287;28;20185;-70
2022/03/19 06:28:49;;;;;;;44.07;35.50;;;;;;;4.25;nan;100140.09;5055519;28;20206;-69
2022/03/19 06:31:16;;;;;;;43.90;34.97;;;;;;;4.28;nan;100134.56;5055408;28;20325;-69
2022/03/19 06:33:44;;;;;;;43.30;33.63;;;;;;;4.39;nan;100139.78;5055607;28;20207;-70
2022/03/19 06:38:55;;;;;;;40.60;32.23;;;;;;;4.59;nan;100138.91;5055338;28;20631;-69
2022/03/19 06:41:22;;;;;;;41.07;32.37;;;;;;;4.72;nan;100137.75;5055168;28;20228;-69
2022/03/19 06:43:49;;;;;;;41.50;31.97;;;;;;;4.97;nan;100139.09;5054174;28;20221;-69
2022/03/19 06:46:15;;;;;;;39.00;30.60;;;;;;;5.04;nan;100140.22;5055099;28;20209;-69
2022/03/19 06:48:42;;;;;;;41.60;31.57;;;;;;;5.07;nan;100137.31;5054943;28;20201;-69
2022/03/19 06:51:08;;;;;;;40.70;31.50;;;;;;;5.13;nan;100140.25;5054941;28;20236;-69
2022/03/19 06:53:35;;;;;;;37.47;29.70;;;;;;;5.27;nan;100141.66;5054830;28;20209;-69
2022/03/19 06:56:03;;;;;;;38.70;29.43;;;;;;;5.46;nan;100136.44;5055299;28;20216;-69
2022/03/19 06:58:29;;;;;;;38.17;30.53;;;;;;;5.52;nan;100147.28;5054654;28;20228;-69
2022/03/19 07:00:55;;;;;;;40.43;30.33;;;;;;;5.47;nan;100133.66;5054656;28;20205;-69
2022/03/19 07:03:22;;;;;;;40.57;30.53;;;;;;;5.71;nan;100136.78;5054528;28;20205;-69
2022/03/19 07:05:48;;;;;;;39.67;31.37;;;;;;;5.76;nan;100141.63;5055099;28;20299;-69
2022/03/19 07:08:15;;;;;;;40.60;29.30;;;;;;;5.65;nan;100123.28;5054587;28;20209;-69
2022/03/19 07:10:41;;;;;;;37.93;30.60;;;;;;;5.69;nan;100129.94;5054145;28;20217;-69
2022/03/19 07:13:08;;;;;;;38.57;30.87;;;;;;;5.84;nan;100125.97;5054512;28;20209;-69
2022/03/19 07:15:34;;;;;;;35.60;28.97;;;;;;;5.87;nan;100123.03;5054333;28;20221;-69
2022/03/19 07:18:02;;;;;;;34.80;29.70;;;;;;;5.95;nan;100124.00;5054358;28;20205;-69
2022/03/19 07:20:29;;;;;;;35.77;28.87;;;;;;;5.87;nan;100125.66;5054161;28;20204;-69
2022/03/19 07:23:07;;;;;;;34.53;29.60;;;;;;;5.97;nan;100126.53;5054155;28;20212;-69
2022/03/19 07:25:36;;;;;;;34.47;27.57;;;;;;;6.17;nan;100129.00;5054281;28;20225;-69
2022/03/19 07:28:06;;;;;;;34.70;28.23;;;;;;;6.16;nan;100121.22;5054214;28;20208;-69
2022/03/19 07:30:33;;;;;;;34.33;28.43;;;;;;;6.29;nan;100124.41;5054045;28;20239;-69
2022/03/19 07:33:00;;;;;;;37.03;30.00;;;;;;;6.26;nan;100122.88;5054031;28;20566;-69
2022/03/19 07:35:27;;;;;;;37.77;28.47;;;;;;;6.33;nan;100123.16;5054046;28;20229;-69
2022/03/19 07:37:54;;;;;;;37.00;29.37;;;;;;;6.41;nan;100115.31;5053767;28;20727;-69
2022/03/19 07:43:04;;;;;;;36.43;27.73;;;;;;;6.37;nan;100117.41;5053358;28;20763;-69
2022/03/19 07:45:31;;;;;;;37.83;28.87;;;;;;;6.53;nan;100119.47;5053721;28;20270;-69
2022/03/19 07:47:58;;;;;;;33.53;27.13;;;;;;;6.56;nan;100119.19;5053758;28;20213;-69
2022/03/19 07:50:24;;;;;;;35.77;28.30;;;;;;;6.64;nan;100112.19;5054113;28;20224;-69
2022/03/19 07:52:51;;;;;;;36.57;27.00;;;;;;;6.83;nan;100108.66;5053779;28;20211;-69
2022/03/19 07:55:18;;;;;;;32.43;26.33;;;;;;;6.83;nan;100103.38;5053743;28;20229;-69
2022/03/19 07:57:45;;;;;;;34.03;27.63;;;;;;;6.91;nan;100112.22;5053721;28;20212;-69
2022/03/19 08:00:13;;;;;;;34.13;26.23;;;;;;;6.79;nan;100105.47;5053446;28;20244;-69
2022/03/19 08:02:40;;;;;;;32.13;26.37;;;;;;;6.86;nan;100106.56;5053631;28;20254;-69
2022/03/19 08:05:08;;;;;;;31.30;23.80;;;;;;;7.00;nan;100107.88;5054089;28;20232;-69
2022/03/19 08:07:34;;;;;;;32.47;25.43;;;;;;;7.09;nan;100115.78;5053746;28;20205;-69
2022/03/19 08:10:01;;;;;;;32.30;25.07;;;;;;;7.24;nan;100108.19;5053158;28;20205;-69
2022/03/19 08:12:27;;;;;;;28.47;23.13;;;;;;;7.22;nan;100102.19;5053470;28;20205;-70
2022/03/19 08:14:55;;;;;;;28.67;23.00;;;;;;;7.42;nan;100103.75;5053331;28;20225;-69
2022/03/19 08:17:21;;;;;;;30.00;23.00;;;;;;;7.35;nan;100103.50;5053376;28;20209;-70
2022/03/19 08:19:48;;;;;;;28.43;23.00;;;;;;;7.49;nan;100113.59;5053007;28;20519;-69
2022/03/19 08:22:14;;;;;;;28.63;23.57;;;;;;;7.51;nan;100097.56;5053416;28;20212;-69
2022/03/19 08:24:41;;;;;;;31.70;23.50;;;;;;;7.43;nan;100105.41;5053670;28;20236;-69
2022/03/19 08:27:10;;;;;;;26.97;22.20;;;;;;;7.50;nan;100099.38;5053140;28;20206;-70
2022/03/19 08:29:37;;;;;;;26.60;21.03;;;;;;;7.61;nan;100085.91;5053431;28;20255;-69
2022/03/19 08:32:03;;;;;;;27.93;20.37;;;;;;;7.69;nan;100082.50;5052789;28;20217;-69
2022/03/19 08:34:30;;;;;;;27.20;21.30;;;;;;;7.78;nan;100090.38;5052920;28;20320;-69
2022/03/19 08:36:56;;;;;;;26.80;20.73;;;;;;;7.88;nan;100082.34;5053083;28;20212;-69
2022/03/19 08:42:07;;;;;;;26.27;19.87;;;;;;;7.83;nan;100087.28;5053094;28;20625;-69
2022/03/19 08:44:33;;;;;;;24.50;19.50;;;;;;;7.98;nan;100081.28;5052558;28;20712;-69
2022/03/19 08:47:00;;;;;;;24.73;19.10;;;;;;;8.04;nan;100088.59;5052896;28;20201;-69
2022/03/19 08:49:26;;;;;;;24.70;19.77;;;;;;;8.12;nan;100080.72;5052884;28;20296;-69
2022/03/19 08:51:53;;;;;;;22.70;19.43;;;;;;;8.07;nan;100084.81;5052696;28;20225;-69
2022/03/19 08:54:21;;;;;;;24.93;17.80;;;;;;;8.15;nan;100084.88;5052824;28;20228;-69
2022/03/19 08:56:49;;;;;;;22.50;17.87;;;;;;;8.26;nan;100076.72;5053070;28;20212;-69
2022/03/19 08:59:17;;;;;;;24.90;19.97;;;;;;;8.24;nan;100070.75;5052620;28;20201;-69
2022/03/19 09:01:45;;;;;;;25.13;19.70;;;;;;;8.36;nan;100069.47;5053105;28;20292;-69
2022/03/19 09:04:13;;;;;;;24.67;19.17;;;;;;;8.53;nan;100066.78;5052589;28;20232;-69
2022/03/19 09:06:39;;;;;;;26.80;20.40;;;;;;;8.52;nan;100066.94;5055147;28;20563;-69
2022/03/19 09:09:06;;;;;;;22.67;18.17;;;;;;;8.65;nan;100072.66;5056817;28;20205;-69
2022/03/19 09:11:34;;;;;;;23.10;18.67;;;;;;;8.63;nan;100064.84;5056286;28;20662;-69
2022/03/19 09:14:02;;;;;;;24.43;17.50;;;;;;;8.69;nan;100056.25;5056539;28;20229;-69
2022/03/19 09:16:29;;;;;;;24.73;18.77;;;;;;;8.63;nan;100069.31;5056364;28;20608;-69
2022/03/19 09:18:56;;;;;;;27.13;20.77;;;;;;;8.70;nan;100057.94;5056714;28;20205;-69
2022/03/19 09:21:22;;;;;;;25.13;19.63;;;;;;;8.67;nan;100049.44;5056492;28;20288;-69
2022/03/19 09:23:49;;;;;;;24.40;20.70;;;;;;;8.78;nan;100043.88;5055952;28;20232;-69
2022/03/19 09:26:17;;;;;;;23.77;19.57;;;;;;;8.92;nan;100052.03;5056251;28;20206;-70
2022/03/19 09:28:44;;;;;;;23.90;18.77;;;;;;;8.95;nan;100050.88;5056307;28;20263;-69
2022/03/19 09:31:10;;;;;;;26.30;20.77;;;;;;;9.04;nan;100044.63;5056344;28;20221;-69
2022/03/19 09:33:36;;;;;;;24.93;19.40;;;;;;;9.05;nan;100038.34;5055902;28;20599;-69
2022/03/19 09:36:03;;;;;;;25.53;20.53;;;;;;;9.18;nan;100026.25;5056111;28;20192;-69
2022/03/19 09:38:29;;;;;;;25.63;20.70;;;;;;;9.32;nan;100019.50;5056197;28;20209;-69
2022/03/19 09:40:57;;;;;;;24.40;20.60;;;;;;;9.44;nan;100021.66;5056228;28;20570;-69
2022/03/19 09:43:27;;;;;;;25.90;19.83;;;;;;;9.38;nan;100016.19;5055935;28;20205;-69
2022/03/19 09:45:54;;;;;;;24.10;20.83;;;;;;;9.69;nan;100014.56;5056154;28;20194;-69
2022/03/19 09:48:21;;;;;;;24.13;20.23;;;;;;;9.73;nan;100005.25;5056158;28;20208;-69
2022/03/19 09:50:53;;;;;;;27.57;21.50;;;;;;;9.64;nan;100001.75;5056009;28;20244;-69
2022/03/19 09:53:22;;;;;;;26.90;21.03;;;;;;;9.79;nan;100000.13;5055879;28;20278;-69
2022/03/19 09:55:51;;;;;;;27.90;22.17;;;;;;;10.00;nan;99984.47;5055915;28;20213;-69
2022/03/19 09:58:18;;;;;;;25.97;21.27;;;;;;;10.00;nan;99975.69;5055522;28;20220;-69
2022/03/19 10:00:44;;;;;;;27.67;23.30;;;;;;;9.95;nan;99972.66;5055439;28;20255;-70
2022/03/19 10:03:12;;;;;;;28.43;23.87;;;;;;;9.95;nan;99967.34;5055538;28;20227;-69
2022/03/19 10:08:38;;;;;;;28.93;23.23;;;;;;;9.67;nan;99950.13;5055642;28;20196;-69
2022/03/19 10:11:13;;;;;;;27.03;22.13;;;;;;;10.08;nan;99946.44;5055744;28;20233;-69
2022/03/19 10:13:44;;;;;;;26.50;22.77;;;;;;;10.27;nan;99944.22;5055469;28;20205;-69
2022/03/19 10:16:11;;;;;;;29.27;21.83;;;;;;;10.29;nan;99944.06;5055647;28;20185;-70
2022/03/19 10:18:38;;;;;;;28.17;22.73;;;;;;;10.06;nan;99935.16;5054327;28;20212;-69
2022/03/19 10:21:18;;;;;;;25.57;22.37;;;;;;;10.04;nan;99942.44;5055552;28;20217;-69
2022/03/19 10:23:44;;;;;;;28.30;23.13;;;;;;;10.17;nan;99934.78;5055359;28;20229;-69
2022/03/19 10:26:26;;;;;;;27.87;23.57;;;;;;;9.95;nan;99935.47;5055330;28;20208;-69
2022/03/19 10:28:57;;;;;;;30.67;25.43;;;;;;;10.17;nan;99926.81;5055280;28;20534;-69
2022/03/19 10:31:50;;;;;;;28.10;24.23;;;;;;;10.42;nan;99928.41;5055104;28;20233;-69
2022/03/19 10:34:16;;;;;;;29.47;24.50;;;;;;;10.28;nan;99931.78;5055012;28;20572;-69
2022/03/19 10:36:45;;;;;;;30.97;24.10;;;;;;;10.40;nan;99930.38;5054907;28;20201;-69
2022/03/19 10:39:12;;;;;;;25.70;22.60;;;;;;;10.48;nan;99925.88;5054899;28;20207;-69
2022/03/19 10:41:39;;;;;;;28.90;24.70;;;;;;;10.61;nan;99927.97;5054965;28;20208;-69
2022/03/19 10:44:15;;;;;;;28.80;24.70;;;;;;;10.74;nan;99914.94;5054788;28;20225;-69
2022/03/19 10:46:49;;;;;;;31.77;25.33;;;;;;;10.43;nan;99914.94;5055270;28;20205;-69
2022/03/19 10:49:17;;;;;;;29.87;26.63;;;;;;;10.70;nan;99905.66;5054692;28;20215;-69
2022/03/19 10:51:50;;;;;;;32.10;25.67;;;;;;;10.46;nan;99897.81;5054820;28;20229;-69
2022/03/19 10:54:17;;;;;;;31.90;24.87;;;;;;;10.32;nan;99903.84;5054730;28;20221;-69
2022/03/19 10:56:45;;;;;;;30.93;25.70;;;;;;;10.48;nan;99899.28;5054539;28;20201;-68
2022/03/19 10:59:12;;;;;;;29.10;24.70;;;;;;;10.58;nan;99885.75;5054543;28;20212;-69
2022/03/19 11:01:39;;;;;;;29.90;25.20;;;;;;;10.25;nan;99889.59;5054566;28;20565;-70
2022/03/19 11:04:11;;;;;;;28.80;23.90;;;;;;;10.44;nan;99873.19;5053894;28;20225;-69
2022/03/19 11:06:42;;;;;;;28.30;22.87;;;;;;;10.41;nan;99868.25;5054347;28;20205;-69
2022/03/19 11:09:15;;;;;;;29.53;22.37;;;;;;;10.69;nan;99867.56;5054600;28;20209;-69
2022/03/19 11:11:52;;;;;;;27.60;21.73;;;;;;;10.94;nan;99866.41;5054393;28;20319;-69
2022/03/19 11:14:23;;;;;;;24.47;20.63;;;;;;;11.17;nan;99844.28;5053878;28;20239;-69
2022/03/19 11:19:45;;;;;;;25.23;20.93;;;;;;;11.20;nan;99844.75;5054291;28;20185;-69
2022/03/19 11:22:12;;;;;;;19.87;15.57;;;;;;;11.37;nan;99848.09;5054296;28;20197;-69
2022/03/19 11:24:46;;;;;;;20.13;14.73;;;;;;;11.39;nan;99838.91;5053919;28;20704;-69
2022/03/19 11:27:14;;;;;;;17.37;14.17;;;;;;;11.28;nan;99829.50;5053745;28;20658;-70
2022/03/19 11:29:41;;;;;;;15.40;12.93;;;;;;;11.10;nan;99828.19;5053556;28;20209;-69
2022/03/19 11:32:07;;;;;;;17.20;12.83;;;;;;;10.60;nan;99836.69;5053772;28;20224;-69
2022/03/19 11:34:48;;;;;;;15.13;12.07;;;;;;;10.56;nan;99824.78;5053437;28;20282;-69
2022/03/19 11:37:15;;;;;;;14.57;12.20;;;;;;;10.82;nan;99827.09;5053630;28;20205;-69
2022/03/19 11:40:22;;;;;;;14.17;11.20;;;;;;;10.88;nan;99835.19;5053893;28;20212;-69
2022/03/19 11:42:55;;;;;;;14.90;11.73;;;;;;;10.70;nan;99810.72;4992244;28;20207;-69
2022/03/19 11:45:23;;;;;;;14.33;10.83;;;;;;;10.89;nan;99809.41;4991635;28;20223;-69
2022/03/19 11:47:49;;;;;;;15.97;12.30;;;;;;;11.22;nan;99791.31;5025615;28;20216;-69
2022/03/19 11:50:24;;;;;;;14.63;12.10;;;;;;;11.24;nan;99798.13;5053362;28;20690;-69
2022/03/19 11:52:53;;;;;;;16.37;11.37;;;;;;;11.30;nan;99792.06;5053689;28;20224;-70
2022/03/19 11:55:23;;;;;;;13.03;10.00;;;;;;;11.34;nan;99796.03;5053392;28;20232;-70
2022/03/19 11:57:50;;;;;;;14.83;10.30;;;;;;;11.34;nan;99784.56;5053297;28;20205;-69
2022/03/19 12:00:18;;;;;;;15.03;10.97;;;;;;;11.55;nan;99796.16;5053285;28;20539;-69